sensor_id;sensor_type;location;lat;lon;timestamp;P1;durP1;ratioP1;P2;durP2;ratioP2
54263;SDS011;40178;53.042;6.406;2022-11-20T00:01:41;19.95;;;9.48;;
54263;SDS011;40178;53.042;6.406;2022-11-20T00:04:08;17.25;;;9.48;;
54263;SDS011;40178;53.042;6.406;2022-11-20T00:06:35;17.13;;;9.68;;
54263;SDS011;40178;53.042;6.406;2022-11-20T00:09:00;20.55;;;10.20;;
54263;SDS011;40178;53.042;6.406;2022-11-20T00:11:27;20.17;;;9.30;;
54263;SDS011;40178;53.042;6.406;2022-11-20T00:13:54;17.73;;;9.63;;
54263;SDS011;40178;53.042;6.406;2022-11-20T00:16:22;19.13;;;9.77;;
54263;SDS011;40178;53.042;6.406;2022-11-20T00:18:49;22.02;;;11.20;;
54263;SDS011;40178;53.042;6.406;2022-11-20T00:21:16;18.25;;;9.13;;
54263;SDS011;40178;53.042;6.406;2022-11-20T00:23:50;17.20;;;9.75;;
54263;SDS011;40178;53.042;6.406;2022-11-20T00:26:18;19.05;;;10.18;;
54263;SDS011;40178;53.042;6.406;2022-11-20T00:28:52;21.88;;;10.65;;
54263;SDS011;40178;53.042;6.406;2022-11-20T00:31:19;17.80;;;9.40;;
54263;SDS011;40178;53.042;6.406;2022-11-20T00:33:45;16.92;;;9.07;;
54263;SDS011;40178;53.042;6.406;2022-11-20T00:36:14;16.35;;;9.23;;
54263;SDS011;40178;53.042;6.406;2022-11-20T00:38:42;17.90;;;8.95;;
54263;SDS011;40178;53.042;6.406;2022-11-20T00:41:08;21.25;;;9.60;;
54263;SDS011;40178;53.042;6.406;2022-11-20T00:43:36;18.90;;;9.48;;
54263;SDS011;40178;53.042;6.406;2022-11-20T00:46:06;19.30;;;9.80;;
54263;SDS011;40178;53.042;6.406;2022-11-20T00:48:33;20.60;;;11.00;;
54263;SDS011;40178;53.042;6.406;2022-11-20T00:50:59;21.00;;;9.90;;
54263;SDS011;40178;53.042;6.406;2022-11-20T00:53:25;19.25;;;9.57;;
54263;SDS011;40178;53.042;6.406;2022-11-20T00:58:22;22.50;;;10.00;;
54263;SDS011;40178;53.042;6.406;2022-11-20T01:00:48;19.80;;;10.25;;
54263;SDS011;40178;53.042;6.406;2022-11-20T01:03:15;18.42;;;9.23;;
54263;SDS011;40178;53.042;6.406;2022-11-20T01:05:41;19.85;;;9.68;;
54263;SDS011;40178;53.042;6.406;2022-11-20T01:08:07;18.50;;;9.68;;
54263;SDS011;40178;53.042;6.406;2022-11-20T01:10:33;19.90;;;9.88;;
54263;SDS011;40178;53.042;6.406;2022-11-20T01:12:58;21.70;;;10.18;;
54263;SDS011;40178;53.042;6.406;2022-11-20T01:15:42;22.45;;;10.48;;
54263;SDS011;40178;53.042;6.406;2022-11-20T01:18:08;19.98;;;10.30;;
54263;SDS011;40178;53.042;6.406;2022-11-20T01:20:34;18.08;;;9.43;;
54263;SDS011;40178;53.042;6.406;2022-11-20T01:23:00;21.58;;;9.82;;
54263;SDS011;40178;53.042;6.406;2022-11-20T01:25:27;19.15;;;9.48;;
54263;SDS011;40178;53.042;6.406;2022-11-20T01:27:52;18.45;;;9.68;;
54263;SDS011;40178;53.042;6.406;2022-11-20T01:30:18;20.25;;;9.23;;
54263;SDS011;40178;53.042;6.406;2022-11-20T01:32:43;20.85;;;9.48;;
54263;SDS011;40178;53.042;6.406;2022-11-20T01:35:09;20.95;;;9.77;;
54263;SDS011;40178;53.042;6.406;2022-11-20T01:37:35;21.95;;;9.38;;
54263;SDS011;40178;53.042;6.406;2022-11-20T01:40:00;21.40;;;9.45;;
54263;SDS011;40178;53.042;6.406;2022-11-20T01:42:26;18.52;;;9.45;;
54263;SDS011;40178;53.042;6.406;2022-11-20T01:48:14;19.42;;;10.07;;
54263;SDS011;40178;53.042;6.406;2022-11-20T01:50:40;19.40;;;10.10;;
54263;SDS011;40178;53.042;6.406;2022-11-20T01:53:08;21.33;;;10.20;;
54263;SDS011;40178;53.042;6.406;2022-11-20T01:55:40;17.65;;;9.48;;
54263;SDS011;40178;53.042;6.406;2022-11-20T01:58:10;18.52;;;9.82;;
54263;SDS011;40178;53.042;6.406;2022-11-20T02:00:37;20.25;;;9.68;;
54263;SDS011;40178;53.042;6.406;2022-11-20T02:03:07;19.83;;;9.90;;
54263;SDS011;40178;53.042;6.406;2022-11-20T02:05:45;20.20;;;10.18;;
54263;SDS011;40178;53.042;6.406;2022-11-20T02:08:19;17.50;;;9.55;;
54263;SDS011;40178;53.042;6.406;2022-11-20T02:10:46;20.70;;;10.00;;
54263;SDS011;40178;53.042;6.406;2022-11-20T02:13:11;19.67;;;9.85;;
54263;SDS011;40178;53.042;6.406;2022-11-20T02:15:55;21.70;;;10.45;;
54263;SDS011;40178;53.042;6.406;2022-11-20T02:18:21;19.05;;;10.63;;
54263;SDS011;40178;53.042;6.406;2022-11-20T02:23:30;18.80;;;9.85;;
54263;SDS011;40178;53.042;6.406;2022-11-20T02:26:02;22.50;;;10.70;;
54263;SDS011;40178;53.042;6.406;2022-11-20T02:28:31;20.25;;;10.32;;
54263;SDS011;40178;53.042;6.406;2022-11-20T02:30:57;19.35;;;10.73;;
54263;SDS011;40178;53.042;6.406;2022-11-20T02:33:22;18.90;;;9.90;;
54263;SDS011;40178;53.042;6.406;2022-11-20T02:35:48;19.23;;;10.18;;
54263;SDS011;40178;53.042;6.406;2022-11-20T02:38:13;19.83;;;10.43;;
54263;SDS011;40178;53.042;6.406;2022-11-20T02:40:40;21.23;;;10.68;;
54263;SDS011;40178;53.042;6.406;2022-11-20T02:43:06;21.27;;;10.60;;
54263;SDS011;40178;53.042;6.406;2022-11-20T02:45:32;21.20;;;11.38;;
54263;SDS011;40178;53.042;6.406;2022-11-20T02:47:58;21.42;;;10.90;;
54263;SDS011;40178;53.042;6.406;2022-11-20T02:50:23;20.38;;;11.07;;
54263;SDS011;40178;53.042;6.406;2022-11-20T02:52:49;21.52;;;10.75;;
54263;SDS011;40178;53.042;6.406;2022-11-20T02:55:14;21.45;;;10.75;;
54263;SDS011;40178;53.042;6.406;2022-11-20T02:57:40;20.27;;;11.30;;
54263;SDS011;40178;53.042;6.406;2022-11-20T03:00:06;21.67;;;10.82;;
54263;SDS011;40178;53.042;6.406;2022-11-20T03:02:32;19.90;;;10.90;;
54263;SDS011;40178;53.042;6.406;2022-11-20T03:04:58;20.98;;;11.57;;
54263;SDS011;40178;53.042;6.406;2022-11-20T03:07:23;22.20;;;10.65;;
54263;SDS011;40178;53.042;6.406;2022-11-20T03:09:49;21.17;;;11.10;;
54263;SDS011;40178;53.042;6.406;2022-11-20T03:12:15;20.83;;;10.32;;
54263;SDS011;40178;53.042;6.406;2022-11-20T03:14:40;22.65;;;10.15;;
54263;SDS011;40178;53.042;6.406;2022-11-20T03:17:06;18.58;;;10.63;;
54263;SDS011;40178;53.042;6.406;2022-11-20T03:19:31;18.92;;;10.02;;
54263;SDS011;40178;53.042;6.406;2022-11-20T03:21:57;19.40;;;10.00;;
54263;SDS011;40178;53.042;6.406;2022-11-20T03:24:23;19.92;;;10.45;;
54263;SDS011;40178;53.042;6.406;2022-11-20T03:26:48;20.35;;;10.55;;
54263;SDS011;40178;53.042;6.406;2022-11-20T03:29:14;20.00;;;10.25;;
54263;SDS011;40178;53.042;6.406;2022-11-20T03:31:40;21.60;;;10.55;;
54263;SDS011;40178;53.042;6.406;2022-11-20T03:34:06;22.75;;;10.65;;
54263;SDS011;40178;53.042;6.406;2022-11-20T03:36:33;22.10;;;10.18;;
54263;SDS011;40178;53.042;6.406;2022-11-20T03:38:59;20.48;;;10.02;;
54263;SDS011;40178;53.042;6.406;2022-11-20T03:41:31;19.42;;;10.27;;
54263;SDS011;40178;53.042;6.406;2022-11-20T03:44:01;21.75;;;10.07;;
54263;SDS011;40178;53.042;6.406;2022-11-20T03:46:28;22.65;;;10.73;;
54263;SDS011;40178;53.042;6.406;2022-11-20T03:48:54;20.88;;;11.65;;
54263;SDS011;40178;53.042;6.406;2022-11-20T03:53:48;19.20;;;10.35;;
54263;SDS011;40178;53.042;6.406;2022-11-20T03:56:16;20.05;;;10.45;;
54263;SDS011;40178;53.042;6.406;2022-11-20T03:58:43;18.85;;;10.98;;
54263;SDS011;40178;53.042;6.406;2022-11-20T04:01:18;20.85;;;10.60;;
54263;SDS011;40178;53.042;6.406;2022-11-20T04:03:48;20.40;;;10.57;;
54263;SDS011;40178;53.042;6.406;2022-11-20T04:06:23;20.42;;;11.15;;
54263;SDS011;40178;53.042;6.406;2022-11-20T04:08:50;20.20;;;10.57;;
54263;SDS011;40178;53.042;6.406;2022-11-20T04:11:19;20.77;;;10.45;;
54263;SDS011;40178;53.042;6.406;2022-11-20T04:13:50;20.83;;;9.82;;
54263;SDS011;40178;53.042;6.406;2022-11-20T04:16:18;19.77;;;9.93;;
54263;SDS011;40178;53.042;6.406;2022-11-20T04:18:44;19.33;;;10.63;;
54263;SDS011;40178;53.042;6.406;2022-11-20T04:21:10;18.77;;;10.65;;
54263;SDS011;40178;53.042;6.406;2022-11-20T04:23:36;21.38;;;11.13;;
54263;SDS011;40178;53.042;6.406;2022-11-20T04:26:11;20.05;;;10.98;;
54263;SDS011;40178;53.042;6.406;2022-11-20T04:28:37;19.65;;;9.52;;
54263;SDS011;40178;53.042;6.406;2022-11-20T04:31:11;19.10;;;9.57;;
54263;SDS011;40178;53.042;6.406;2022-11-20T04:33:38;22.60;;;9.35;;
54263;SDS011;40178;53.042;6.406;2022-11-20T04:36:05;15.85;;;9.77;;
54263;SDS011;40178;53.042;6.406;2022-11-20T04:38:33;20.75;;;10.07;;
54263;SDS011;40178;53.042;6.406;2022-11-20T04:41:00;16.00;;;8.65;;
54263;SDS011;40178;53.042;6.406;2022-11-20T04:43:28;15.65;;;9.45;;
54263;SDS011;40178;53.042;6.406;2022-11-20T04:45:55;19.08;;;9.65;;
54263;SDS011;40178;53.042;6.406;2022-11-20T04:48:21;17.95;;;8.80;;
54263;SDS011;40178;53.042;6.406;2022-11-20T04:50:47;17.80;;;9.40;;
54263;SDS011;40178;53.042;6.406;2022-11-20T04:53:13;17.25;;;9.13;;
54263;SDS011;40178;53.042;6.406;2022-11-20T04:55:39;17.70;;;9.00;;
54263;SDS011;40178;53.042;6.406;2022-11-20T04:58:04;17.10;;;9.18;;
54263;SDS011;40178;53.042;6.406;2022-11-20T05:00:30;20.55;;;9.40;;
54263;SDS011;40178;53.042;6.406;2022-11-20T05:02:55;17.50;;;8.63;;
54263;SDS011;40178;53.042;6.406;2022-11-20T05:05:21;16.58;;;8.95;;
54263;SDS011;40178;53.042;6.406;2022-11-20T05:07:46;16.42;;;9.00;;
54263;SDS011;40178;53.042;6.406;2022-11-20T05:10:12;17.70;;;8.82;;
54263;SDS011;40178;53.042;6.406;2022-11-20T05:12:38;16.33;;;8.20;;
54263;SDS011;40178;53.042;6.406;2022-11-20T05:15:03;14.80;;;7.50;;
54263;SDS011;40178;53.042;6.406;2022-11-20T05:17:29;15.82;;;8.45;;
54263;SDS011;40178;53.042;6.406;2022-11-20T05:19:55;15.50;;;7.70;;
54263;SDS011;40178;53.042;6.406;2022-11-20T05:22:20;16.73;;;8.27;;
54263;SDS011;40178;53.042;6.406;2022-11-20T05:24:46;16.05;;;8.48;;
54263;SDS011;40178;53.042;6.406;2022-11-20T05:27:11;16.42;;;8.18;;
54263;SDS011;40178;53.042;6.406;2022-11-20T05:29:37;15.13;;;7.75;;
54263;SDS011;40178;53.042;6.406;2022-11-20T05:32:02;15.48;;;7.88;;
54263;SDS011;40178;53.042;6.406;2022-11-20T05:34:30;18.77;;;8.70;;
54263;SDS011;40178;53.042;6.406;2022-11-20T05:36:56;15.82;;;8.45;;
54263;SDS011;40178;53.042;6.406;2022-11-20T05:39:21;16.52;;;8.57;;
54263;SDS011;40178;53.042;6.406;2022-11-20T05:41:47;16.58;;;8.40;;
54263;SDS011;40178;53.042;6.406;2022-11-20T05:44:32;17.58;;;9.25;;
54263;SDS011;40178;53.042;6.406;2022-11-20T05:46:58;18.85;;;8.07;;
54263;SDS011;40178;53.042;6.406;2022-11-20T05:49:23;15.73;;;7.85;;
54263;SDS011;40178;53.042;6.406;2022-11-20T05:51:49;15.70;;;8.23;;
54263;SDS011;40178;53.042;6.406;2022-11-20T05:54:14;14.95;;;8.32;;
54263;SDS011;40178;53.042;6.406;2022-11-20T05:56:40;16.73;;;8.38;;
54263;SDS011;40178;53.042;6.406;2022-11-20T05:59:06;18.55;;;8.90;;
54263;SDS011;40178;53.042;6.406;2022-11-20T06:01:31;15.27;;;8.88;;
54263;SDS011;40178;53.042;6.406;2022-11-20T06:03:57;15.68;;;8.75;;
54263;SDS011;40178;53.042;6.406;2022-11-20T06:06:22;18.35;;;9.35;;
54263;SDS011;40178;53.042;6.406;2022-11-20T06:08:48;16.10;;;9.45;;
54263;SDS011;40178;53.042;6.406;2022-11-20T06:11:14;17.30;;;8.90;;
54263;SDS011;40178;53.042;6.406;2022-11-20T06:13:40;17.02;;;9.05;;
54263;SDS011;40178;53.042;6.406;2022-11-20T06:16:06;16.55;;;8.57;;
54263;SDS011;40178;53.042;6.406;2022-11-20T06:18:32;17.40;;;8.65;;
54263;SDS011;40178;53.042;6.406;2022-11-20T06:21:02;16.13;;;8.55;;
54263;SDS011;40178;53.042;6.406;2022-11-20T06:23:29;17.10;;;8.60;;
54263;SDS011;40178;53.042;6.406;2022-11-20T06:25:56;18.35;;;9.23;;
54263;SDS011;40178;53.042;6.406;2022-11-20T06:28:26;14.52;;;8.00;;
54263;SDS011;40178;53.042;6.406;2022-11-20T06:30:52;16.35;;;8.75;;
54263;SDS011;40178;53.042;6.406;2022-11-20T06:33:17;17.88;;;9.50;;
54263;SDS011;40178;53.042;6.406;2022-11-20T06:35:43;17.30;;;8.95;;
54263;SDS011;40178;53.042;6.406;2022-11-20T06:38:08;16.85;;;8.48;;
54263;SDS011;40178;53.042;6.406;2022-11-20T06:40:34;16.85;;;8.85;;
54263;SDS011;40178;53.042;6.406;2022-11-20T06:43:00;18.98;;;9.30;;
54263;SDS011;40178;53.042;6.406;2022-11-20T06:45:25;15.23;;;7.63;;
54263;SDS011;40178;53.042;6.406;2022-11-20T06:47:51;18.95;;;9.02;;
54263;SDS011;40178;53.042;6.406;2022-11-20T06:50:16;16.48;;;8.98;;
54263;SDS011;40178;53.042;6.406;2022-11-20T06:52:42;15.70;;;7.97;;
54263;SDS011;40178;53.042;6.406;2022-11-20T06:55:07;16.52;;;8.25;;
54263;SDS011;40178;53.042;6.406;2022-11-20T06:57:33;14.75;;;8.27;;
54263;SDS011;40178;53.042;6.406;2022-11-20T06:59:58;16.42;;;8.43;;
54263;SDS011;40178;53.042;6.406;2022-11-20T07:02:24;15.15;;;7.60;;
54263;SDS011;40178;53.042;6.406;2022-11-20T07:04:50;16.30;;;8.13;;
54263;SDS011;40178;53.042;6.406;2022-11-20T07:07:15;15.18;;;8.45;;
54263;SDS011;40178;53.042;6.406;2022-11-20T07:09:41;17.67;;;8.63;;
54263;SDS011;40178;53.042;6.406;2022-11-20T07:12:06;15.93;;;8.98;;
54263;SDS011;40178;53.042;6.406;2022-11-20T07:14:32;16.23;;;8.88;;
54263;SDS011;40178;53.042;6.406;2022-11-20T07:16:57;18.70;;;8.60;;
54263;SDS011;40178;53.042;6.406;2022-11-20T07:19:23;14.95;;;7.25;;
54263;SDS011;40178;53.042;6.406;2022-11-20T07:21:48;16.23;;;7.72;;
54263;SDS011;40178;53.042;6.406;2022-11-20T07:24:14;14.82;;;7.75;;
54263;SDS011;40178;53.042;6.406;2022-11-20T07:26:39;14.57;;;7.75;;
54263;SDS011;40178;53.042;6.406;2022-11-20T07:29:05;17.67;;;8.25;;
54263;SDS011;40178;53.042;6.406;2022-11-20T07:31:30;14.98;;;7.07;;
54263;SDS011;40178;53.042;6.406;2022-11-20T07:33:56;15.27;;;8.02;;
54263;SDS011;40178;53.042;6.406;2022-11-20T07:36:21;15.50;;;7.90;;
54263;SDS011;40178;53.042;6.406;2022-11-20T07:38:47;15.23;;;7.53;;
54263;SDS011;40178;53.042;6.406;2022-11-20T07:41:13;16.35;;;7.88;;
54263;SDS011;40178;53.042;6.406;2022-11-20T07:43:38;16.42;;;8.18;;
54263;SDS011;40178;53.042;6.406;2022-11-20T07:46:04;13.43;;;7.00;;
54263;SDS011;40178;53.042;6.406;2022-11-20T07:48:29;14.32;;;7.28;;
54263;SDS011;40178;53.042;6.406;2022-11-20T07:50:58;12.77;;;6.75;;
54263;SDS011;40178;53.042;6.406;2022-11-20T07:53:23;14.75;;;6.88;;
54263;SDS011;40178;53.042;6.406;2022-11-20T07:55:49;12.20;;;6.53;;
54263;SDS011;40178;53.042;6.406;2022-11-20T07:58:17;13.52;;;6.97;;
54263;SDS011;40178;53.042;6.406;2022-11-20T08:00:44;14.77;;;7.30;;
54263;SDS011;40178;53.042;6.406;2022-11-20T08:03:09;14.93;;;6.88;;
54263;SDS011;40178;53.042;6.406;2022-11-20T08:05:35;12.65;;;7.05;;
54263;SDS011;40178;53.042;6.406;2022-11-20T08:08:00;15.65;;;7.25;;
54263;SDS011;40178;53.042;6.406;2022-11-20T08:10:26;15.75;;;7.00;;
54263;SDS011;40178;53.042;6.406;2022-11-20T08:12:52;17.45;;;6.78;;
54263;SDS011;40178;53.042;6.406;2022-11-20T08:15:37;18.77;;;7.47;;
54263;SDS011;40178;53.042;6.406;2022-11-20T08:18:07;16.35;;;7.82;;
54263;SDS011;40178;53.042;6.406;2022-11-20T08:20:36;15.10;;;6.72;;
54263;SDS011;40178;53.042;6.406;2022-11-20T08:23:03;14.38;;;7.10;;
54263;SDS011;40178;53.042;6.406;2022-11-20T08:25:31;13.30;;;6.75;;
54263;SDS011;40178;53.042;6.406;2022-11-20T08:27:58;13.75;;;7.03;;
54263;SDS011;40178;53.042;6.406;2022-11-20T08:30:24;13.52;;;7.43;;
54263;SDS011;40178;53.042;6.406;2022-11-20T08:32:50;13.25;;;7.13;;
54263;SDS011;40178;53.042;6.406;2022-11-20T08:35:16;13.48;;;6.82;;
54263;SDS011;40178;53.042;6.406;2022-11-20T08:37:41;15.65;;;7.03;;
54263;SDS011;40178;53.042;6.406;2022-11-20T08:40:10;12.52;;;6.95;;
54263;SDS011;40178;53.042;6.406;2022-11-20T08:42:36;12.82;;;6.93;;
54263;SDS011;40178;53.042;6.406;2022-11-20T08:45:02;15.20;;;7.57;;
54263;SDS011;40178;53.042;6.406;2022-11-20T08:47:28;12.60;;;6.90;;
54263;SDS011;40178;53.042;6.406;2022-11-20T08:49:53;13.45;;;7.55;;
54263;SDS011;40178;53.042;6.406;2022-11-20T08:52:19;14.50;;;7.45;;
54263;SDS011;40178;53.042;6.406;2022-11-20T08:54:44;14.48;;;6.88;;
54263;SDS011;40178;53.042;6.406;2022-11-20T08:57:10;14.85;;;7.68;;
54263;SDS011;40178;53.042;6.406;2022-11-20T08:59:36;17.20;;;8.25;;
54263;SDS011;40178;53.042;6.406;2022-11-20T09:02:01;13.43;;;7.30;;
54263;SDS011;40178;53.042;6.406;2022-11-20T09:04:27;17.55;;;7.88;;
54263;SDS011;40178;53.042;6.406;2022-11-20T09:06:52;13.27;;;7.53;;
54263;SDS011;40178;53.042;6.406;2022-11-20T09:09:18;14.32;;;7.60;;
54263;SDS011;40178;53.042;6.406;2022-11-20T09:11:44;16.63;;;7.85;;
54263;SDS011;40178;53.042;6.406;2022-11-20T09:14:10;17.38;;;8.00;;
54263;SDS011;40178;53.042;6.406;2022-11-20T09:16:35;13.80;;;7.93;;
54263;SDS011;40178;53.042;6.406;2022-11-20T09:19:01;16.33;;;8.38;;
54263;SDS011;40178;53.042;6.406;2022-11-20T09:21:26;13.70;;;7.00;;
54263;SDS011;40178;53.042;6.406;2022-11-20T09:23:52;14.50;;;7.38;;
54263;SDS011;40178;53.042;6.406;2022-11-20T09:26:17;15.18;;;6.95;;
54263;SDS011;40178;53.042;6.406;2022-11-20T09:28:44;13.23;;;6.95;;
54263;SDS011;40178;53.042;6.406;2022-11-20T09:31:17;16.90;;;7.18;;
54263;SDS011;40178;53.042;6.406;2022-11-20T09:33:48;14.15;;;6.60;;
54263;SDS011;40178;53.042;6.406;2022-11-20T09:36:13;12.75;;;6.88;;
54263;SDS011;40178;53.042;6.406;2022-11-20T09:38:39;13.90;;;6.63;;
54263;SDS011;40178;53.042;6.406;2022-11-20T09:41:05;13.75;;;6.40;;
54263;SDS011;40178;53.042;6.406;2022-11-20T09:49:32;12.65;;;5.93;;
54263;SDS011;40178;53.042;6.406;2022-11-20T09:54:44;14.20;;;6.57;;
54263;SDS011;40178;53.042;6.406;2022-11-20T09:57:11;13.07;;;6.32;;
54263;SDS011;40178;53.042;6.406;2022-11-20T09:59:44;15.50;;;6.97;;
54263;SDS011;40178;53.042;6.406;2022-11-20T10:04:50;11.57;;;5.93;;
54263;SDS011;40178;53.042;6.406;2022-11-20T10:07:38;13.15;;;6.30;;
54263;SDS011;40178;53.042;6.406;2022-11-20T10:10:16;14.18;;;5.68;;
54263;SDS011;40178;53.042;6.406;2022-11-20T10:15:54;15.13;;;6.18;;
54263;SDS011;40178;53.042;6.406;2022-11-20T10:24:24;11.73;;;5.00;;
54263;SDS011;40178;53.042;6.406;2022-11-20T10:30:01;11.20;;;5.40;;
54263;SDS011;40178;53.042;6.406;2022-11-20T10:32:40;10.13;;;5.47;;
54263;SDS011;40178;53.042;6.406;2022-11-20T10:37:48;10.23;;;5.38;;
54263;SDS011;40178;53.042;6.406;2022-11-20T10:40:28;11.10;;;5.43;;
54263;SDS011;40178;53.042;6.406;2022-11-20T10:43:06;10.40;;;5.15;;
54263;SDS011;40178;53.042;6.406;2022-11-20T10:48:16;10.90;;;5.10;;
54263;SDS011;40178;53.042;6.406;2022-11-20T10:50:57;9.90;;;4.65;;
54263;SDS011;40178;53.042;6.406;2022-11-20T10:54:07;11.13;;;5.03;;
54263;SDS011;40178;53.042;6.406;2022-11-20T10:56:52;10.73;;;4.60;;
54263;SDS011;40178;53.042;6.406;2022-11-20T11:02:24;11.23;;;4.65;;
54263;SDS011;40178;53.042;6.406;2022-11-20T11:04:58;8.68;;;3.95;;
54263;SDS011;40178;53.042;6.406;2022-11-20T11:07:35;7.65;;;3.83;;
54263;SDS011;40178;53.042;6.406;2022-11-20T11:10:12;7.78;;;3.58;;
54263;SDS011;40178;53.042;6.406;2022-11-20T11:12:49;9.82;;;4.40;;
54263;SDS011;40178;53.042;6.406;2022-11-20T11:15:24;8.98;;;3.78;;
54263;SDS011;40178;53.042;6.406;2022-11-20T11:17:55;7.40;;;3.90;;
54263;SDS011;40178;53.042;6.406;2022-11-20T11:20:24;8.48;;;4.13;;
54263;SDS011;40178;53.042;6.406;2022-11-20T11:22:54;9.77;;;3.53;;
54263;SDS011;40178;53.042;6.406;2022-11-20T11:25:26;10.20;;;4.00;;
54263;SDS011;40178;53.042;6.406;2022-11-20T11:27:52;8.35;;;3.70;;
54263;SDS011;40178;53.042;6.406;2022-11-20T11:30:20;8.27;;;3.20;;
54263;SDS011;40178;53.042;6.406;2022-11-20T11:32:47;8.80;;;3.00;;
54263;SDS011;40178;53.042;6.406;2022-11-20T11:35:23;6.97;;;3.10;;
54263;SDS011;40178;53.042;6.406;2022-11-20T11:37:51;6.60;;;3.40;;
54263;SDS011;40178;53.042;6.406;2022-11-20T11:40:19;8.10;;;3.63;;
54263;SDS011;40178;53.042;6.406;2022-11-20T11:42:56;7.72;;;3.70;;
54263;SDS011;40178;53.042;6.406;2022-11-20T11:45:25;8.75;;;3.60;;
54263;SDS011;40178;53.042;6.406;2022-11-20T11:47:52;8.68;;;3.53;;
54263;SDS011;40178;53.042;6.406;2022-11-20T11:50:22;10.20;;;3.40;;
54263;SDS011;40178;53.042;6.406;2022-11-20T11:55:26;9.30;;;3.67;;
54263;SDS011;40178;53.042;6.406;2022-11-20T12:04:03;7.75;;;3.70;;
54263;SDS011;40178;53.042;6.406;2022-11-20T12:06:29;7.57;;;3.90;;
54263;SDS011;40178;53.042;6.406;2022-11-20T12:08:59;8.07;;;3.88;;
54263;SDS011;40178;53.042;6.406;2022-11-20T12:11:35;10.52;;;4.30;;
54263;SDS011;40178;53.042;6.406;2022-11-20T12:14:15;7.47;;;3.65;;
54263;SDS011;40178;53.042;6.406;2022-11-20T12:16:44;13.20;;;4.38;;
54263;SDS011;40178;53.042;6.406;2022-11-20T12:19:11;8.98;;;3.42;;
54263;SDS011;40178;53.042;6.406;2022-11-20T12:26:57;9.57;;;4.20;;
54263;SDS011;40178;53.042;6.406;2022-11-20T12:41:12;7.95;;;4.22;;
54263;SDS011;40178;53.042;6.406;2022-11-20T12:53:04;9.77;;;4.43;;
54263;SDS011;40178;53.042;6.406;2022-11-20T12:55:47;8.45;;;3.40;;
54263;SDS011;40178;53.042;6.406;2022-11-20T12:58:27;9.45;;;3.05;;
54263;SDS011;40178;53.042;6.406;2022-11-20T13:04:15;7.50;;;4.00;;
54263;SDS011;40178;53.042;6.406;2022-11-20T13:09:11;8.07;;;3.60;;
54263;SDS011;40178;53.042;6.406;2022-11-20T13:11:41;8.80;;;4.63;;
54263;SDS011;40178;53.042;6.406;2022-11-20T13:14:34;10.98;;;3.78;;
54263;SDS011;40178;53.042;6.406;2022-11-20T13:19:49;6.65;;;3.78;;
54263;SDS011;40178;53.042;6.406;2022-11-20T13:22:28;6.63;;;3.25;;
54263;SDS011;40178;53.042;6.406;2022-11-20T13:25:08;8.43;;;3.78;;
54263;SDS011;40178;53.042;6.406;2022-11-20T13:27:35;7.95;;;3.38;;
54263;SDS011;40178;53.042;6.406;2022-11-20T13:30:02;7.22;;;3.38;;
54263;SDS011;40178;53.042;6.406;2022-11-20T13:33:22;6.68;;;3.47;;
54263;SDS011;40178;53.042;6.406;2022-11-20T13:35:54;6.88;;;3.60;;
54263;SDS011;40178;53.042;6.406;2022-11-20T13:38:28;10.48;;;4.07;;
54263;SDS011;40178;53.042;6.406;2022-11-20T13:41:22;8.35;;;3.90;;
54263;SDS011;40178;53.042;6.406;2022-11-20T13:46:45;6.57;;;3.60;;
54263;SDS011;40178;53.042;6.406;2022-11-20T13:49:23;7.50;;;3.65;;
54263;SDS011;40178;53.042;6.406;2022-11-20T13:54:55;8.88;;;3.60;;
54263;SDS011;40178;53.042;6.406;2022-11-20T13:57:48;7.05;;;3.45;;
54263;SDS011;40178;53.042;6.406;2022-11-20T14:00:22;9.30;;;3.67;;
54263;SDS011;40178;53.042;6.406;2022-11-20T14:03:09;8.65;;;3.65;;
54263;SDS011;40178;53.042;6.406;2022-11-20T14:05:40;8.45;;;3.60;;
54263;SDS011;40178;53.042;6.406;2022-11-20T14:14:01;11.85;;;5.43;;
54263;SDS011;40178;53.042;6.406;2022-11-20T14:16:29;9.65;;;4.20;;
54263;SDS011;40178;53.042;6.406;2022-11-20T14:18:57;8.35;;;4.22;;
54263;SDS011;40178;53.042;6.406;2022-11-20T14:21:48;9.38;;;4.20;;
54263;SDS011;40178;53.042;6.406;2022-11-20T14:24:18;10.45;;;4.68;;
54263;SDS011;40178;53.042;6.406;2022-11-20T14:26:45;8.27;;;4.20;;
54263;SDS011;40178;53.042;6.406;2022-11-20T14:29:22;9.02;;;4.10;;
54263;SDS011;40178;53.042;6.406;2022-11-20T14:31:53;9.85;;;5.00;;
54263;SDS011;40178;53.042;6.406;2022-11-20T14:34:22;11.38;;;5.60;;
54263;SDS011;40178;53.042;6.406;2022-11-20T14:36:56;9.23;;;4.95;;
54263;SDS011;40178;53.042;6.406;2022-11-20T14:39:34;10.43;;;4.82;;
54263;SDS011;40178;53.042;6.406;2022-11-20T14:42:01;10.43;;;4.82;;
54263;SDS011;40178;53.042;6.406;2022-11-20T14:44:39;10.23;;;4.60;;
54263;SDS011;40178;53.042;6.406;2022-11-20T14:47:08;9.70;;;5.45;;
54263;SDS011;40178;53.042;6.406;2022-11-20T14:49:37;9.48;;;5.20;;
54263;SDS011;40178;53.042;6.406;2022-11-20T14:52:12;9.65;;;4.90;;
54263;SDS011;40178;53.042;6.406;2022-11-20T14:54:50;13.00;;;4.95;;
54263;SDS011;40178;53.042;6.406;2022-11-20T14:59:51;9.57;;;5.15;;
54263;SDS011;40178;53.042;6.406;2022-11-20T15:02:29;11.45;;;4.75;;
54263;SDS011;40178;53.042;6.406;2022-11-20T15:04:58;10.13;;;5.22;;
54263;SDS011;40178;53.042;6.406;2022-11-20T15:07:42;9.52;;;5.07;;
54263;SDS011;40178;53.042;6.406;2022-11-20T15:13:00;10.57;;;4.70;;
54263;SDS011;40178;53.042;6.406;2022-11-20T15:15:32;10.82;;;5.18;;
54263;SDS011;40178;53.042;6.406;2022-11-20T15:18:09;8.98;;;4.53;;
54263;SDS011;40178;53.042;6.406;2022-11-20T15:20:37;11.48;;;5.60;;
54263;SDS011;40178;53.042;6.406;2022-11-20T15:23:07;9.20;;;5.00;;
54263;SDS011;40178;53.042;6.406;2022-11-20T15:25:39;10.82;;;4.63;;
54263;SDS011;40178;53.042;6.406;2022-11-20T15:28:07;12.73;;;5.55;;
54263;SDS011;40178;53.042;6.406;2022-11-20T15:30:44;10.38;;;5.20;;
54263;SDS011;40178;53.042;6.406;2022-11-20T15:33:11;9.98;;;4.93;;
54263;SDS011;40178;53.042;6.406;2022-11-20T15:35:37;10.65;;;5.22;;
54263;SDS011;40178;53.042;6.406;2022-11-20T15:38:03;12.25;;;5.88;;
54263;SDS011;40178;53.042;6.406;2022-11-20T15:40:28;10.40;;;5.13;;
54263;SDS011;40178;53.042;6.406;2022-11-20T15:42:54;11.32;;;5.15;;
54263;SDS011;40178;53.042;6.406;2022-11-20T15:45:29;12.80;;;6.13;;
54263;SDS011;40178;53.042;6.406;2022-11-20T15:48:03;10.20;;;5.15;;
54263;SDS011;40178;53.042;6.406;2022-11-20T15:50:41;12.57;;;5.88;;
54263;SDS011;40178;53.042;6.406;2022-11-20T15:53:15;12.25;;;5.47;;
54263;SDS011;40178;53.042;6.406;2022-11-20T15:55:41;10.75;;;5.50;;
54263;SDS011;40178;53.042;6.406;2022-11-20T15:58:06;13.02;;;5.65;;
54263;SDS011;40178;53.042;6.406;2022-11-20T16:00:32;13.13;;;6.30;;
54263;SDS011;40178;53.042;6.406;2022-11-20T16:02:57;11.20;;;5.80;;
54263;SDS011;40178;53.042;6.406;2022-11-20T16:05:23;13.32;;;6.15;;
54263;SDS011;40178;53.042;6.406;2022-11-20T16:07:53;12.27;;;6.13;;
54263;SDS011;40178;53.042;6.406;2022-11-20T16:10:18;12.68;;;6.72;;
54263;SDS011;40178;53.042;6.406;2022-11-20T16:12:44;12.55;;;6.60;;
54263;SDS011;40178;53.042;6.406;2022-11-20T16:15:28;13.63;;;6.75;;
54263;SDS011;40178;53.042;6.406;2022-11-20T16:18:13;10.90;;;6.15;;
54263;SDS011;40178;53.042;6.406;2022-11-20T16:20:40;16.05;;;6.47;;
54263;SDS011;40178;53.042;6.406;2022-11-20T16:23:06;12.65;;;6.28;;
54263;SDS011;40178;53.042;6.406;2022-11-20T16:25:32;10.95;;;5.90;;
54263;SDS011;40178;53.042;6.406;2022-11-20T16:27:58;12.68;;;6.88;;